Terminal Aerodrome Forecast
Issued by NWS Austin/San Antonio, TX

Home | Current Version | Previous Version | Text Only | Print | Product List | Glossary On
Versions: 1 2 3 4 5 6 7 8 9 10 11 12 13 14 15 16 17 18 19 20 21 22 23 24 25
316
FTUS44 KEWX 290832 AAB
TAFAUS
TAF AMD
KAUS 290832Z 2909/3012 02010KT P6SM BKN020 OVC120
     FM291200 05006KT P6SM SCT012 OVC035
     FM291700 10009KT P6SM BKN040
     FM300500 11004KT P6SM SCT015 BKN100
     FM300900 10003KT 4SM BR BKN012=

USA.gov is the U.S. government's official web portal to all federal, state and local government web resources and services.